sensor_id;sensor_type;location;lat;lon;timestamp;P1;durP1;ratioP1;P2;durP2;ratioP2
59972;SDS011;55298;-36.624;-64.282;2023-04-25T00:00:33;14.38;;;5.15;;
59972;SDS011;55298;-36.624;-64.282;2023-04-25T00:03:01;8.13;;;4.15;;
59972;SDS011;55298;-36.624;-64.282;2023-04-25T00:05:31;8.77;;;4.30;;
59972;SDS011;55298;-36.624;-64.282;2023-04-25T00:07:59;8.18;;;4.38;;
59972;SDS011;55298;-36.624;-64.282;2023-04-25T00:10:27;8.70;;;4.72;;
59972;SDS011;55298;-36.624;-64.282;2023-04-25T00:12:55;11.18;;;5.68;;
59972;SDS011;55298;-36.624;-64.282;2023-04-25T00:15:23;9.63;;;5.05;;
59972;SDS011;55298;-36.624;-64.282;2023-04-25T00:17:51;8.23;;;4.78;;
59972;SDS011;55298;-36.624;-64.282;2023-04-25T00:20:19;7.75;;;5.20;;
59972;SDS011;55298;-36.624;-64.282;2023-04-25T00:22:49;11.00;;;6.47;;
59972;SDS011;55298;-36.624;-64.282;2023-04-25T00:25:19;11.95;;;5.20;;
59972;SDS011;55298;-36.624;-64.282;2023-04-25T00:27:46;4.68;;;4.00;;
59972;SDS011;55298;-36.624;-64.282;2023-04-25T00:30:14;7.13;;;4.57;;
59972;SDS011;55298;-36.624;-64.282;2023-04-25T00:32:42;6.50;;;4.55;;
59972;SDS011;55298;-36.624;-64.282;2023-04-25T00:35:11;5.05;;;4.10;;
59972;SDS011;55298;-36.624;-64.282;2023-04-25T00:37:42;6.38;;;4.40;;
59972;SDS011;55298;-36.624;-64.282;2023-04-25T00:40:10;5.65;;;4.53;;
59972;SDS011;55298;-36.624;-64.282;2023-04-25T00:42:38;6.72;;;4.30;;
59972;SDS011;55298;-36.624;-64.282;2023-04-25T00:45:07;10.68;;;5.00;;
59972;SDS011;55298;-36.624;-64.282;2023-04-25T00:47:40;7.82;;;4.57;;
59972;SDS011;55298;-36.624;-64.282;2023-04-25T00:50:08;6.07;;;5.10;;
59972;SDS011;55298;-36.624;-64.282;2023-04-25T00:52:39;8.02;;;5.00;;
59972;SDS011;55298;-36.624;-64.282;2023-04-25T00:55:09;7.93;;;5.47;;
59972;SDS011;55298;-36.624;-64.282;2023-04-25T00:57:38;10.65;;;5.32;;
59972;SDS011;55298;-36.624;-64.282;2023-04-25T01:00:06;5.90;;;5.18;;
59972;SDS011;55298;-36.624;-64.282;2023-04-25T01:02:36;6.43;;;5.40;;
59972;SDS011;55298;-36.624;-64.282;2023-04-25T01:05:08;9.73;;;4.93;;
59972;SDS011;55298;-36.624;-64.282;2023-04-25T01:07:38;6.82;;;5.40;;
59972;SDS011;55298;-36.624;-64.282;2023-04-25T01:10:06;7.28;;;5.28;;
59972;SDS011;55298;-36.624;-64.282;2023-04-25T01:12:34;8.02;;;5.00;;
59972;SDS011;55298;-36.624;-64.282;2023-04-25T01:15:02;8.10;;;5.10;;
59972;SDS011;55298;-36.624;-64.282;2023-04-25T01:17:30;7.40;;;5.40;;
59972;SDS011;55298;-36.624;-64.282;2023-04-25T01:20:02;6.47;;;5.10;;
59972;SDS011;55298;-36.624;-64.282;2023-04-25T01:22:33;6.35;;;4.97;;
59972;SDS011;55298;-36.624;-64.282;2023-04-25T01:25:01;7.00;;;4.60;;
59972;SDS011;55298;-36.624;-64.282;2023-04-25T01:27:29;8.45;;;5.30;;
59972;SDS011;55298;-36.624;-64.282;2023-04-25T01:29:57;6.00;;;5.40;;
59972;SDS011;55298;-36.624;-64.282;2023-04-25T01:32:25;7.68;;;5.35;;
59972;SDS011;55298;-36.624;-64.282;2023-04-25T01:34:53;5.90;;;5.05;;
59972;SDS011;55298;-36.624;-64.282;2023-04-25T01:37:22;8.40;;;5.80;;
59972;SDS011;55298;-36.624;-64.282;2023-04-25T01:39:50;6.30;;;5.47;;
59972;SDS011;55298;-36.624;-64.282;2023-04-25T01:42:19;6.85;;;5.03;;
59972;SDS011;55298;-36.624;-64.282;2023-04-25T01:44:47;5.65;;;4.90;;
59972;SDS011;55298;-36.624;-64.282;2023-04-25T01:47:14;7.32;;;5.13;;
59972;SDS011;55298;-36.624;-64.282;2023-04-25T01:49:42;7.10;;;5.50;;
59972;SDS011;55298;-36.624;-64.282;2023-04-25T01:52:10;5.80;;;5.20;;
59972;SDS011;55298;-36.624;-64.282;2023-04-25T01:54:38;7.72;;;5.13;;
59972;SDS011;55298;-36.624;-64.282;2023-04-25T01:57:10;5.68;;;5.07;;
59972;SDS011;55298;-36.624;-64.282;2023-04-25T01:59:38;7.40;;;5.13;;
59972;SDS011;55298;-36.624;-64.282;2023-04-25T02:02:07;6.93;;;4.80;;
59972;SDS011;55298;-36.624;-64.282;2023-04-25T02:04:34;6.35;;;5.40;;
59972;SDS011;55298;-36.624;-64.282;2023-04-25T02:07:03;9.27;;;5.97;;
59972;SDS011;55298;-36.624;-64.282;2023-04-25T02:09:31;7.68;;;5.03;;
59972;SDS011;55298;-36.624;-64.282;2023-04-25T02:11:58;6.15;;;5.55;;
59972;SDS011;55298;-36.624;-64.282;2023-04-25T02:14:27;10.45;;;6.70;;
59972;SDS011;55298;-36.624;-64.282;2023-04-25T02:16:55;10.15;;;5.60;;
59972;SDS011;55298;-36.624;-64.282;2023-04-25T02:19:23;6.53;;;5.60;;
59972;SDS011;55298;-36.624;-64.282;2023-04-25T02:21:51;7.10;;;5.15;;
59972;SDS011;55298;-36.624;-64.282;2023-04-25T02:24:20;8.07;;;5.30;;
59972;SDS011;55298;-36.624;-64.282;2023-04-25T02:26:48;10.25;;;5.10;;
59972;SDS011;55298;-36.624;-64.282;2023-04-25T02:29:18;7.55;;;5.50;;
59972;SDS011;55298;-36.624;-64.282;2023-04-25T02:31:46;8.00;;;5.15;;
59972;SDS011;55298;-36.624;-64.282;2023-04-25T02:34:14;10.10;;;5.47;;
59972;SDS011;55298;-36.624;-64.282;2023-04-25T02:36:41;7.38;;;4.97;;
59972;SDS011;55298;-36.624;-64.282;2023-04-25T02:39:09;9.80;;;5.43;;
59972;SDS011;55298;-36.624;-64.282;2023-04-25T02:41:38;6.45;;;4.82;;
59972;SDS011;55298;-36.624;-64.282;2023-04-25T02:44:06;5.28;;;4.78;;
59972;SDS011;55298;-36.624;-64.282;2023-04-25T02:46:33;5.82;;;5.32;;
59972;SDS011;55298;-36.624;-64.282;2023-04-25T02:49:01;7.32;;;5.13;;
59972;SDS011;55298;-36.624;-64.282;2023-04-25T02:51:29;6.50;;;5.28;;
59972;SDS011;55298;-36.624;-64.282;2023-04-25T02:53:57;6.72;;;5.18;;
59972;SDS011;55298;-36.624;-64.282;2023-04-25T02:56:25;7.55;;;5.10;;
59972;SDS011;55298;-36.624;-64.282;2023-04-25T02:58:53;7.40;;;4.60;;
59972;SDS011;55298;-36.624;-64.282;2023-04-25T03:01:21;7.18;;;5.00;;
59972;SDS011;55298;-36.624;-64.282;2023-04-25T03:03:49;9.70;;;4.93;;
59972;SDS011;55298;-36.624;-64.282;2023-04-25T03:06:17;6.10;;;4.63;;
59972;SDS011;55298;-36.624;-64.282;2023-04-25T03:08:44;10.02;;;4.80;;
59972;SDS011;55298;-36.624;-64.282;2023-04-25T03:11:12;5.82;;;4.50;;
59972;SDS011;55298;-36.624;-64.282;2023-04-25T03:13:40;5.15;;;4.65;;
59972;SDS011;55298;-36.624;-64.282;2023-04-25T03:16:08;8.60;;;4.88;;
59972;SDS011;55298;-36.624;-64.282;2023-04-25T03:18:39;6.25;;;4.80;;
59972;SDS011;55298;-36.624;-64.282;2023-04-25T03:21:06;5.88;;;4.40;;
59972;SDS011;55298;-36.624;-64.282;2023-04-25T03:23:35;5.95;;;4.32;;
59972;SDS011;55298;-36.624;-64.282;2023-04-25T03:26:03;5.63;;;4.25;;
59972;SDS011;55298;-36.624;-64.282;2023-04-25T03:28:30;6.45;;;4.75;;
59972;SDS011;55298;-36.624;-64.282;2023-04-25T03:30:58;7.07;;;4.80;;
59972;SDS011;55298;-36.624;-64.282;2023-04-25T03:33:26;5.75;;;4.50;;
59972;SDS011;55298;-36.624;-64.282;2023-04-25T03:35:54;10.35;;;5.32;;
59972;SDS011;55298;-36.624;-64.282;2023-04-25T03:38:22;7.03;;;4.40;;
59972;SDS011;55298;-36.624;-64.282;2023-04-25T03:40:51;6.50;;;4.28;;
59972;SDS011;55298;-36.624;-64.282;2023-04-25T03:43:21;5.00;;;3.97;;
59972;SDS011;55298;-36.624;-64.282;2023-04-25T03:45:49;7.53;;;4.50;;
59972;SDS011;55298;-36.624;-64.282;2023-04-25T03:48:17;6.53;;;4.38;;
59972;SDS011;55298;-36.624;-64.282;2023-04-25T03:50:47;5.90;;;4.05;;
59972;SDS011;55298;-36.624;-64.282;2023-04-25T03:53:15;11.13;;;4.88;;
59972;SDS011;55298;-36.624;-64.282;2023-04-25T03:55:42;8.57;;;5.10;;
59972;SDS011;55298;-36.624;-64.282;2023-04-25T03:58:10;6.20;;;4.50;;
59972;SDS011;55298;-36.624;-64.282;2023-04-25T04:00:38;4.75;;;4.20;;
59972;SDS011;55298;-36.624;-64.282;2023-04-25T04:03:06;4.05;;;3.75;;
59972;SDS011;55298;-36.624;-64.282;2023-04-25T04:05:34;4.30;;;3.88;;
59972;SDS011;55298;-36.624;-64.282;2023-04-25T04:08:02;6.38;;;4.18;;
59972;SDS011;55298;-36.624;-64.282;2023-04-25T04:10:31;7.63;;;4.38;;
59972;SDS011;55298;-36.624;-64.282;2023-04-25T04:13:02;4.38;;;3.80;;
59972;SDS011;55298;-36.624;-64.282;2023-04-25T04:15:30;6.78;;;4.30;;
59972;SDS011;55298;-36.624;-64.282;2023-04-25T04:17:58;4.18;;;3.80;;
59972;SDS011;55298;-36.624;-64.282;2023-04-25T04:20:29;9.20;;;4.68;;
59972;SDS011;55298;-36.624;-64.282;2023-04-25T04:22:57;5.75;;;4.10;;
59972;SDS011;55298;-36.624;-64.282;2023-04-25T04:25:26;8.07;;;4.10;;
59972;SDS011;55298;-36.624;-64.282;2023-04-25T04:27:55;5.15;;;4.20;;
59972;SDS011;55298;-36.624;-64.282;2023-04-25T04:30:24;5.60;;;4.07;;
59972;SDS011;55298;-36.624;-64.282;2023-04-25T04:32:55;5.72;;;4.25;;
59972;SDS011;55298;-36.624;-64.282;2023-04-25T04:35:26;5.85;;;5.25;;
59972;SDS011;55298;-36.624;-64.282;2023-04-25T04:37:54;4.88;;;4.25;;
59972;SDS011;55298;-36.624;-64.282;2023-04-25T04:40:22;8.73;;;4.45;;
59972;SDS011;55298;-36.624;-64.282;2023-04-25T04:42:51;13.23;;;6.25;;
59972;SDS011;55298;-36.624;-64.282;2023-04-25T04:45:22;16.35;;;5.18;;
59972;SDS011;55298;-36.624;-64.282;2023-04-25T04:47:53;5.82;;;4.55;;
59972;SDS011;55298;-36.624;-64.282;2023-04-25T04:50:21;4.95;;;4.10;;
59972;SDS011;55298;-36.624;-64.282;2023-04-25T04:52:48;5.13;;;4.35;;
59972;SDS011;55298;-36.624;-64.282;2023-04-25T04:55:16;5.60;;;4.30;;
59972;SDS011;55298;-36.624;-64.282;2023-04-25T04:57:44;6.85;;;4.75;;
59972;SDS011;55298;-36.624;-64.282;2023-04-25T05:00:12;6.03;;;4.22;;
59972;SDS011;55298;-36.624;-64.282;2023-04-25T05:02:41;5.60;;;4.63;;
59972;SDS011;55298;-36.624;-64.282;2023-04-25T05:05:09;6.05;;;4.85;;
59972;SDS011;55298;-36.624;-64.282;2023-04-25T05:07:36;4.80;;;4.40;;
59972;SDS011;55298;-36.624;-64.282;2023-04-25T05:10:04;7.78;;;4.40;;
59972;SDS011;55298;-36.624;-64.282;2023-04-25T05:12:33;5.32;;;4.82;;
59972;SDS011;55298;-36.624;-64.282;2023-04-25T05:15:01;5.90;;;4.32;;
59972;SDS011;55298;-36.624;-64.282;2023-04-25T05:17:29;6.18;;;4.78;;
59972;SDS011;55298;-36.624;-64.282;2023-04-25T05:19:56;4.97;;;4.10;;
59972;SDS011;55298;-36.624;-64.282;2023-04-25T05:22:24;5.07;;;4.57;;
59972;SDS011;55298;-36.624;-64.282;2023-04-25T05:24:52;5.82;;;4.40;;
59972;SDS011;55298;-36.624;-64.282;2023-04-25T05:27:20;7.78;;;4.60;;
59972;SDS011;55298;-36.624;-64.282;2023-04-25T05:29:48;5.25;;;4.30;;
59972;SDS011;55298;-36.624;-64.282;2023-04-25T05:32:15;7.22;;;4.90;;
59972;SDS011;55298;-36.624;-64.282;2023-04-25T05:34:44;6.85;;;4.70;;
59972;SDS011;55298;-36.624;-64.282;2023-04-25T05:37:12;6.55;;;5.32;;
59972;SDS011;55298;-36.624;-64.282;2023-04-25T05:39:40;5.47;;;4.75;;
59972;SDS011;55298;-36.624;-64.282;2023-04-25T05:42:08;7.85;;;5.85;;
59972;SDS011;55298;-36.624;-64.282;2023-04-25T05:44:36;5.50;;;5.00;;
59972;SDS011;55298;-36.624;-64.282;2023-04-25T05:47:04;9.38;;;4.80;;
59972;SDS011;55298;-36.624;-64.282;2023-04-25T05:49:31;6.45;;;5.07;;
59972;SDS011;55298;-36.624;-64.282;2023-04-25T05:52:00;8.88;;;4.90;;
59972;SDS011;55298;-36.624;-64.282;2023-04-25T05:54:28;9.02;;;4.70;;
59972;SDS011;55298;-36.624;-64.282;2023-04-25T05:56:56;5.40;;;4.53;;
59972;SDS011;55298;-36.624;-64.282;2023-04-25T05:59:24;8.15;;;5.22;;
59972;SDS011;55298;-36.624;-64.282;2023-04-25T06:01:51;5.00;;;4.45;;
59972;SDS011;55298;-36.624;-64.282;2023-04-25T06:04:20;8.32;;;5.22;;
59972;SDS011;55298;-36.624;-64.282;2023-04-25T06:06:48;7.80;;;5.00;;
59972;SDS011;55298;-36.624;-64.282;2023-04-25T06:09:16;9.55;;;4.95;;
59972;SDS011;55298;-36.624;-64.282;2023-04-25T06:11:43;9.50;;;5.20;;
59972;SDS011;55298;-36.624;-64.282;2023-04-25T06:14:11;7.68;;;5.25;;
59972;SDS011;55298;-36.624;-64.282;2023-04-25T06:16:38;5.55;;;4.93;;
59972;SDS011;55298;-36.624;-64.282;2023-04-25T06:19:07;7.68;;;4.97;;
59972;SDS011;55298;-36.624;-64.282;2023-04-25T06:21:35;9.38;;;5.75;;
59972;SDS011;55298;-36.624;-64.282;2023-04-25T06:24:04;10.80;;;5.03;;
59972;SDS011;55298;-36.624;-64.282;2023-04-25T06:26:32;6.65;;;5.18;;
59972;SDS011;55298;-36.624;-64.282;2023-04-25T06:29:00;6.40;;;5.25;;
59972;SDS011;55298;-36.624;-64.282;2023-04-25T06:31:28;10.80;;;5.53;;
59972;SDS011;55298;-36.624;-64.282;2023-04-25T06:33:58;6.22;;;5.40;;
59972;SDS011;55298;-36.624;-64.282;2023-04-25T06:36:26;6.25;;;4.93;;
59972;SDS011;55298;-36.624;-64.282;2023-04-25T06:38:54;11.40;;;5.82;;
59972;SDS011;55298;-36.624;-64.282;2023-04-25T06:41:22;10.35;;;5.70;;
59972;SDS011;55298;-36.624;-64.282;2023-04-25T06:43:50;8.63;;;5.65;;
59972;SDS011;55298;-36.624;-64.282;2023-04-25T06:46:18;6.93;;;5.18;;
59972;SDS011;55298;-36.624;-64.282;2023-04-25T06:48:45;5.93;;;5.38;;
59972;SDS011;55298;-36.624;-64.282;2023-04-25T06:51:13;5.55;;;4.95;;
59972;SDS011;55298;-36.624;-64.282;2023-04-25T06:53:41;8.77;;;5.50;;
59972;SDS011;55298;-36.624;-64.282;2023-04-25T06:56:08;6.32;;;5.68;;
59972;SDS011;55298;-36.624;-64.282;2023-04-25T06:58:36;6.70;;;5.60;;
59972;SDS011;55298;-36.624;-64.282;2023-04-25T07:01:04;8.60;;;6.05;;
59972;SDS011;55298;-36.624;-64.282;2023-04-25T07:03:32;6.63;;;6.03;;
59972;SDS011;55298;-36.624;-64.282;2023-04-25T07:06:00;6.22;;;5.63;;
59972;SDS011;55298;-36.624;-64.282;2023-04-25T07:08:29;8.25;;;5.72;;
59972;SDS011;55298;-36.624;-64.282;2023-04-25T07:10:57;7.68;;;6.20;;
59972;SDS011;55298;-36.624;-64.282;2023-04-25T07:13:25;6.40;;;5.80;;
59972;SDS011;55298;-36.624;-64.282;2023-04-25T07:15:52;7.80;;;6.25;;
59972;SDS011;55298;-36.624;-64.282;2023-04-25T07:18:20;6.75;;;6.15;;
59972;SDS011;55298;-36.624;-64.282;2023-04-25T07:20:48;6.70;;;6.03;;
59972;SDS011;55298;-36.624;-64.282;2023-04-25T07:23:16;8.25;;;6.30;;
59972;SDS011;55298;-36.624;-64.282;2023-04-25T07:25:44;7.22;;;6.55;;
59972;SDS011;55298;-36.624;-64.282;2023-04-25T07:28:11;6.90;;;5.90;;
59972;SDS011;55298;-36.624;-64.282;2023-04-25T07:30:39;7.60;;;6.25;;
59972;SDS011;55298;-36.624;-64.282;2023-04-25T07:33:07;6.88;;;5.90;;
59972;SDS011;55298;-36.624;-64.282;2023-04-25T07:35:35;8.38;;;7.15;;
59972;SDS011;55298;-36.624;-64.282;2023-04-25T07:38:02;9.00;;;6.38;;
59972;SDS011;55298;-36.624;-64.282;2023-04-25T07:40:33;8.88;;;6.68;;
59972;SDS011;55298;-36.624;-64.282;2023-04-25T07:43:01;7.53;;;6.90;;
59972;SDS011;55298;-36.624;-64.282;2023-04-25T07:45:28;9.27;;;6.72;;
59972;SDS011;55298;-36.624;-64.282;2023-04-25T07:47:56;7.60;;;6.90;;
59972;SDS011;55298;-36.624;-64.282;2023-04-25T07:50:24;8.23;;;7.20;;
59972;SDS011;55298;-36.624;-64.282;2023-04-25T07:52:51;7.53;;;6.65;;
59972;SDS011;55298;-36.624;-64.282;2023-04-25T07:55:19;7.68;;;6.97;;
59972;SDS011;55298;-36.624;-64.282;2023-04-25T07:57:48;8.52;;;6.95;;
59972;SDS011;55298;-36.624;-64.282;2023-04-25T08:00:16;9.10;;;7.40;;
59972;SDS011;55298;-36.624;-64.282;2023-04-25T08:02:44;11.55;;;7.90;;
59972;SDS011;55298;-36.624;-64.282;2023-04-25T08:05:12;8.55;;;6.70;;
59972;SDS011;55298;-36.624;-64.282;2023-04-25T08:07:41;8.20;;;7.50;;
59972;SDS011;55298;-36.624;-64.282;2023-04-25T08:10:09;7.47;;;6.78;;
59972;SDS011;55298;-36.624;-64.282;2023-04-25T08:12:37;8.07;;;7.28;;
59972;SDS011;55298;-36.624;-64.282;2023-04-25T08:15:05;8.52;;;6.90;;
59972;SDS011;55298;-36.624;-64.282;2023-04-25T08:17:33;7.70;;;6.63;;
59972;SDS011;55298;-36.624;-64.282;2023-04-25T08:20:01;9.35;;;6.90;;
59972;SDS011;55298;-36.624;-64.282;2023-04-25T08:22:31;10.95;;;6.75;;
59972;SDS011;55298;-36.624;-64.282;2023-04-25T08:24:59;10.10;;;6.53;;
59972;SDS011;55298;-36.624;-64.282;2023-04-25T08:27:27;7.95;;;6.82;;
59972;SDS011;55298;-36.624;-64.282;2023-04-25T08:29:57;14.18;;;7.15;;
59972;SDS011;55298;-36.624;-64.282;2023-04-25T08:32:24;8.95;;;6.85;;
59972;SDS011;55298;-36.624;-64.282;2023-04-25T08:34:52;10.35;;;7.78;;
59972;SDS011;55298;-36.624;-64.282;2023-04-25T08:37:21;8.05;;;7.25;;
59972;SDS011;55298;-36.624;-64.282;2023-04-25T08:39:49;7.65;;;6.95;;
59972;SDS011;55298;-36.624;-64.282;2023-04-25T08:42:18;10.30;;;7.22;;
59972;SDS011;55298;-36.624;-64.282;2023-04-25T08:44:49;9.75;;;7.45;;
59972;SDS011;55298;-36.624;-64.282;2023-04-25T08:47:17;10.20;;;8.15;;
59972;SDS011;55298;-36.624;-64.282;2023-04-25T08:49:49;8.85;;;8.00;;
59972;SDS011;55298;-36.624;-64.282;2023-04-25T08:52:23;9.15;;;7.30;;
59972;SDS011;55298;-36.624;-64.282;2023-04-25T08:54:53;9.60;;;6.90;;
59972;SDS011;55298;-36.624;-64.282;2023-04-25T08:57:23;7.70;;;6.90;;
59972;SDS011;55298;-36.624;-64.282;2023-04-25T08:59:51;8.02;;;6.43;;
59972;SDS011;55298;-36.624;-64.282;2023-04-25T09:02:20;7.55;;;6.85;;
59972;SDS011;55298;-36.624;-64.282;2023-04-25T09:04:48;10.55;;;7.50;;
59972;SDS011;55298;-36.624;-64.282;2023-04-25T09:07:17;7.90;;;7.20;;
59972;SDS011;55298;-36.624;-64.282;2023-04-25T09:09:47;8.95;;;7.60;;
59972;SDS011;55298;-36.624;-64.282;2023-04-25T09:12:18;8.15;;;7.32;;
59972;SDS011;55298;-36.624;-64.282;2023-04-25T09:17:34;8.25;;;7.40;;
59972;SDS011;55298;-36.624;-64.282;2023-04-25T09:20:07;9.40;;;8.18;;
59972;SDS011;55298;-36.624;-64.282;2023-04-25T09:22:38;8.10;;;7.35;;
59972;SDS011;55298;-36.624;-64.282;2023-04-25T09:25:08;13.40;;;8.27;;
59972;SDS011;55298;-36.624;-64.282;2023-04-25T09:27:48;7.90;;;7.20;;
59972;SDS011;55298;-36.624;-64.282;2023-04-25T09:30:17;9.30;;;8.32;;
59972;SDS011;55298;-36.624;-64.282;2023-04-25T09:32:58;10.90;;;8.20;;
59972;SDS011;55298;-36.624;-64.282;2023-04-25T09:35:37;9.52;;;6.68;;
59972;SDS011;55298;-36.624;-64.282;2023-04-25T09:38:10;9.20;;;8.18;;
59972;SDS011;55298;-36.624;-64.282;2023-04-25T09:40:41;9.93;;;8.10;;
59972;SDS011;55298;-36.624;-64.282;2023-04-25T09:43:18;9.20;;;8.30;;
59972;SDS011;55298;-36.624;-64.282;2023-04-25T09:45:47;11.07;;;8.98;;
59972;SDS011;55298;-36.624;-64.282;2023-04-25T09:48:18;9.57;;;8.55;;
59972;SDS011;55298;-36.624;-64.282;2023-04-25T09:51:15;11.27;;;8.40;;
59972;SDS011;55298;-36.624;-64.282;2023-04-25T09:53:37;9.88;;;8.70;;
59972;SDS011;55298;-36.624;-64.282;2023-04-25T09:56:08;11.60;;;9.20;;
59972;SDS011;55298;-36.624;-64.282;2023-04-25T09:58:38;12.23;;;9.32;;
59972;SDS011;55298;-36.624;-64.282;2023-04-25T10:01:08;9.73;;;8.90;;
59972;SDS011;55298;-36.624;-64.282;2023-04-25T10:03:39;9.20;;;8.18;;
59972;SDS011;55298;-36.624;-64.282;2023-04-25T10:06:08;10.45;;;8.52;;
59972;SDS011;55298;-36.624;-64.282;2023-04-25T10:08:41;15.77;;;11.18;;
59972;SDS011;55298;-36.624;-64.282;2023-04-25T10:11:10;10.90;;;8.60;;
59972;SDS011;55298;-36.624;-64.282;2023-04-25T10:13:41;12.32;;;10.00;;
59972;SDS011;55298;-36.624;-64.282;2023-04-25T10:16:09;17.38;;;9.52;;
59972;SDS011;55298;-36.624;-64.282;2023-04-25T10:18:37;13.77;;;7.82;;
59972;SDS011;55298;-36.624;-64.282;2023-04-25T10:21:05;9.13;;;8.43;;
59972;SDS011;55298;-36.624;-64.282;2023-04-25T10:23:35;17.60;;;9.50;;
59972;SDS011;55298;-36.624;-64.282;2023-04-25T10:26:04;10.80;;;9.68;;
59972;SDS011;55298;-36.624;-64.282;2023-04-25T10:31:24;19.58;;;9.10;;
59972;SDS011;55298;-36.624;-64.282;2023-04-25T10:33:57;13.65;;;8.85;;
59972;SDS011;55298;-36.624;-64.282;2023-04-25T10:36:31;15.25;;;11.18;;
59972;SDS011;55298;-36.624;-64.282;2023-04-25T10:39:04;10.00;;;9.02;;
59972;SDS011;55298;-36.624;-64.282;2023-04-25T10:44:14;16.70;;;12.40;;
59972;SDS011;55298;-36.624;-64.282;2023-04-25T10:46:44;13.50;;;9.50;;
59972;SDS011;55298;-36.624;-64.282;2023-04-25T10:54:53;14.45;;;11.55;;
59972;SDS011;55298;-36.624;-64.282;2023-04-25T11:00:14;15.05;;;11.02;;
59972;SDS011;55298;-36.624;-64.282;2023-04-25T11:02:47;19.38;;;11.82;;
59972;SDS011;55298;-36.624;-64.282;2023-04-25T11:08:03;13.90;;;10.18;;
59972;SDS011;55298;-36.624;-64.282;2023-04-25T11:11:04;12.93;;;9.32;;
59972;SDS011;55298;-36.624;-64.282;2023-04-25T11:13:32;14.38;;;10.18;;
59972;SDS011;55298;-36.624;-64.282;2023-04-25T11:16:00;15.18;;;10.20;;
59972;SDS011;55298;-36.624;-64.282;2023-04-25T11:18:29;14.30;;;9.98;;
59972;SDS011;55298;-36.624;-64.282;2023-04-25T11:21:09;16.70;;;9.38;;
59972;SDS011;55298;-36.624;-64.282;2023-04-25T11:23:44;12.27;;;9.38;;
59972;SDS011;55298;-36.624;-64.282;2023-04-25T11:26:24;12.35;;;9.30;;
59972;SDS011;55298;-36.624;-64.282;2023-04-25T11:28:56;11.02;;;8.18;;
59972;SDS011;55298;-36.624;-64.282;2023-04-25T11:31:27;8.55;;;7.75;;
59972;SDS011;55298;-36.624;-64.282;2023-04-25T11:33:58;11.23;;;7.95;;
59972;SDS011;55298;-36.624;-64.282;2023-04-25T11:36:29;11.68;;;8.48;;
59972;SDS011;55298;-36.624;-64.282;2023-04-25T11:38:58;8.15;;;7.35;;
59972;SDS011;55298;-36.624;-64.282;2023-04-25T11:41:26;10.48;;;7.88;;
59972;SDS011;55298;-36.624;-64.282;2023-04-25T11:43:57;8.18;;;7.38;;
59972;SDS011;55298;-36.624;-64.282;2023-04-25T11:46:27;7.75;;;6.95;;
59972;SDS011;55298;-36.624;-64.282;2023-04-25T11:48:56;14.88;;;8.05;;
59972;SDS011;55298;-36.624;-64.282;2023-04-25T11:51:37;8.05;;;6.32;;
59972;SDS011;55298;-36.624;-64.282;2023-04-25T11:54:08;8.32;;;7.30;;
59972;SDS011;55298;-36.624;-64.282;2023-04-25T11:56:40;11.77;;;7.47;;
59972;SDS011;55298;-36.624;-64.282;2023-04-25T12:01:41;9.02;;;6.88;;
59972;SDS011;55298;-36.624;-64.282;2023-04-25T12:04:16;7.82;;;6.85;;
59972;SDS011;55298;-36.624;-64.282;2023-04-25T12:06:49;8.65;;;6.07;;
59972;SDS011;55298;-36.624;-64.282;2023-04-25T12:09:20;8.85;;;6.85;;
59972;SDS011;55298;-36.624;-64.282;2023-04-25T12:12:03;10.18;;;7.07;;
59972;SDS011;55298;-36.624;-64.282;2023-04-25T12:14:33;9.30;;;6.43;;
59972;SDS011;55298;-36.624;-64.282;2023-04-25T12:17:02;7.80;;;6.20;;
59972;SDS011;55298;-36.624;-64.282;2023-04-25T12:19:34;7.15;;;5.78;;
59972;SDS011;55298;-36.624;-64.282;2023-04-25T12:22:18;8.02;;;6.30;;
59972;SDS011;55298;-36.624;-64.282;2023-04-25T12:24:48;8.75;;;7.15;;
59972;SDS011;55298;-36.624;-64.282;2023-04-25T12:27:19;7.38;;;5.88;;
59972;SDS011;55298;-36.624;-64.282;2023-04-25T12:29:52;7.90;;;5.90;;
59972;SDS011;55298;-36.624;-64.282;2023-04-25T12:32:22;11.38;;;6.40;;
59972;SDS011;55298;-36.624;-64.282;2023-04-25T12:34:52;10.27;;;7.18;;
59972;SDS011;55298;-36.624;-64.282;2023-04-25T12:37:22;7.63;;;6.38;;
59972;SDS011;55298;-36.624;-64.282;2023-04-25T12:39:52;8.40;;;5.93;;
59972;SDS011;55298;-36.624;-64.282;2023-04-25T12:42:21;7.95;;;6.35;;
59972;SDS011;55298;-36.624;-64.282;2023-04-25T12:44:50;6.82;;;6.13;;
59972;SDS011;55298;-36.624;-64.282;2023-04-25T12:47:18;10.48;;;5.85;;
59972;SDS011;55298;-36.624;-64.282;2023-04-25T12:49:47;6.78;;;5.82;;
59972;SDS011;55298;-36.624;-64.282;2023-04-25T12:52:14;7.15;;;6.20;;
59972;SDS011;55298;-36.624;-64.282;2023-04-25T12:54:43;6.85;;;5.03;;
59972;SDS011;55298;-36.624;-64.282;2023-04-25T12:57:11;8.35;;;6.18;;
59972;SDS011;55298;-36.624;-64.282;2023-04-25T12:59:42;6.57;;;6.03;;
59972;SDS011;55298;-36.624;-64.282;2023-04-25T13:02:10;7.35;;;5.88;;
59972;SDS011;55298;-36.624;-64.282;2023-04-25T13:04:39;7.13;;;5.70;;
59972;SDS011;55298;-36.624;-64.282;2023-04-25T13:07:07;6.18;;;5.63;;
59972;SDS011;55298;-36.624;-64.282;2023-04-25T13:09:36;9.32;;;6.30;;
59972;SDS011;55298;-36.624;-64.282;2023-04-25T13:12:06;7.07;;;5.75;;
59972;SDS011;55298;-36.624;-64.282;2023-04-25T13:14:34;9.45;;;5.82;;
59972;SDS011;55298;-36.624;-64.282;2023-04-25T13:17:03;5.28;;;4.55;;
59972;SDS011;55298;-36.624;-64.282;2023-04-25T13:19:33;6.70;;;5.50;;
59972;SDS011;55298;-36.624;-64.282;2023-04-25T13:22:05;8.35;;;6.80;;
59972;SDS011;55298;-36.624;-64.282;2023-04-25T13:24:34;8.75;;;6.50;;
59972;SDS011;55298;-36.624;-64.282;2023-04-25T13:27:03;10.65;;;7.90;;
59972;SDS011;55298;-36.624;-64.282;2023-04-25T13:29:32;8.13;;;7.32;;
59972;SDS011;55298;-36.624;-64.282;2023-04-25T13:32:01;12.45;;;6.45;;
59972;SDS011;55298;-36.624;-64.282;2023-04-25T13:34:30;8.80;;;5.40;;
59972;SDS011;55298;-36.624;-64.282;2023-04-25T13:36:59;11.07;;;6.15;;
59972;SDS011;55298;-36.624;-64.282;2023-04-25T13:39:28;8.90;;;5.97;;
59972;SDS011;55298;-36.624;-64.282;2023-04-25T13:41:57;6.53;;;5.40;;
59972;SDS011;55298;-36.624;-64.282;2023-04-25T13:44:27;8.05;;;5.60;;
59972;SDS011;55298;-36.624;-64.282;2023-04-25T13:46:58;7.47;;;5.57;;
59972;SDS011;55298;-36.624;-64.282;2023-04-25T13:49:27;12.70;;;6.20;;
59972;SDS011;55298;-36.624;-64.282;2023-04-25T13:51:56;5.88;;;5.20;;
59972;SDS011;55298;-36.624;-64.282;2023-04-25T13:54:27;10.60;;;6.30;;
59972;SDS011;55298;-36.624;-64.282;2023-04-25T13:56:55;12.90;;;7.47;;
59972;SDS011;55298;-36.624;-64.282;2023-04-25T13:59:25;10.00;;;6.78;;
59972;SDS011;55298;-36.624;-64.282;2023-04-25T14:01:53;7.93;;;5.55;;
59972;SDS011;55298;-36.624;-64.282;2023-04-25T14:04:24;8.80;;;5.70;;
59972;SDS011;55298;-36.624;-64.282;2023-04-25T14:06:54;8.18;;;5.60;;
59972;SDS011;55298;-36.624;-64.282;2023-04-25T14:09:22;11.32;;;7.07;;
59972;SDS011;55298;-36.624;-64.282;2023-04-25T14:11:53;8.07;;;5.10;;
59972;SDS011;55298;-36.624;-64.282;2023-04-25T14:14:22;6.80;;;4.75;;
59972;SDS011;55298;-36.624;-64.282;2023-04-25T14:16:51;7.22;;;4.20;;
59972;SDS011;55298;-36.624;-64.282;2023-04-25T14:19:20;6.55;;;4.40;;
59972;SDS011;55298;-36.624;-64.282;2023-04-25T14:21:50;6.82;;;4.88;;
59972;SDS011;55298;-36.624;-64.282;2023-04-25T14:24:21;8.50;;;4.88;;
59972;SDS011;55298;-36.624;-64.282;2023-04-25T14:26:49;10.65;;;5.10;;
59972;SDS011;55298;-36.624;-64.282;2023-04-25T14:29:18;8.63;;;5.00;;
59972;SDS011;55298;-36.624;-64.282;2023-04-25T14:31:49;6.32;;;4.85;;
59972;SDS011;55298;-36.624;-64.282;2023-04-25T14:34:18;8.63;;;5.13;;
59972;SDS011;55298;-36.624;-64.282;2023-04-25T14:36:51;10.50;;;5.28;;
59972;SDS011;55298;-36.624;-64.282;2023-04-25T14:39:22;6.78;;;4.03;;